Time;durP1;ratioP1;P1;durP2;ratioP2;P2;SDS_P1;SDS_P2;PMS_P1;PMS_P2;Temp;Humidity;BMP_temperature;BMP_pressure;BME280_temperature;BME280_humidity;BME280_pressure;Samples;Min_cycle;Max_cycle;Signal;HPM_P1;HPM_P2
2021/01/30 00:00:15;;;;;;;18.03;8.13;;;7.30;99.90;;;;;;5035180;28;20200;-76
2021/01/30 00:02:41;;;;;;;18.98;9.80;;;7.30;99.90;;;;;;5034810;28;20531;-76
2021/01/30 00:05:08;;;;;;;22.03;10.93;;;7.40;99.90;;;;;;5033825;28;20211;-76
2021/01/30 00:07:33;;;;;;;14.85;9.25;;;7.40;99.90;;;;;;5034645;28;20198;-75
2021/01/30 00:09:59;;;;;;;17.33;9.30;;;7.40;99.90;;;;;;5034797;28;20196;-75
2021/01/30 00:12:24;;;;;;;17.17;9.43;;;7.40;99.90;;;;;;5034781;28;20177;-76
2021/01/30 00:14:52;;;;;;;17.53;10.90;;;7.30;99.90;;;;;;5033516;28;20182;-75
2021/01/30 00:17:18;;;;;;;12.77;8.80;;;7.30;99.90;;;;;;5034328;28;20576;-74
2021/01/30 00:19:44;;;;;;;12.80;9.87;;;7.30;99.90;;;;;;5034801;28;20255;-75
2021/01/30 00:22:16;;;;;;;16.17;8.90;;;7.40;99.90;;;;;;5034718;28;20630;-74
2021/01/30 00:24:42;;;;;;;17.27;10.32;;;7.40;99.90;;;;;;5034404;28;20193;-76
2021/01/30 00:27:13;;;;;;;15.20;9.93;;;7.30;99.90;;;;;;5034145;28;20166;-75
2021/01/30 00:29:39;;;;;;;19.38;9.80;;;7.30;99.90;;;;;;5034720;28;20172;-77
2021/01/30 00:32:05;;;;;;;16.60;9.60;;;7.20;99.90;;;;;;5034577;28;20186;-76
2021/01/30 00:34:32;;;;;;;10.23;8.27;;;7.30;99.90;;;;;;5034430;28;20416;-75
2021/01/30 00:37:07;;;;;;;12.23;7.72;;;7.20;99.90;;;;;;5032617;28;20197;-75
2021/01/30 00:39:33;;;;;;;12.77;7.40;;;7.20;99.90;;;;;;5034429;28;20173;-75
2021/01/30 00:41:58;;;;;;;12.32;7.25;;;7.20;99.90;;;;;;5034381;28;20558;-75
2021/01/30 00:44:24;;;;;;;13.20;8.30;;;7.20;99.90;;;;;;5034404;28;20198;-74
2021/01/30 00:46:50;;;;;;;11.77;7.13;;;7.10;99.90;;;;;;5034147;28;20174;-76
2021/01/30 00:49:16;;;;;;;9.83;6.47;;;7.20;99.90;;;;;;5034075;28;20181;-76
2021/01/30 00:51:42;;;;;;;8.27;6.43;;;7.20;99.90;;;;;;5033082;28;20421;-76
2021/01/30 00:54:08;;;;;;;7.97;6.00;;;7.10;99.90;;;;;;5034144;28;20587;-75
2021/01/30 00:56:33;;;;;;;10.93;7.30;;;7.10;99.90;;;;;;5034168;28;20205;-76
2021/01/30 00:58:59;;;;;;;13.20;7.40;;;7.10;99.90;;;;;;5033616;28;20214;-77
2021/01/30 01:01:24;;;;;;;14.43;6.40;;;7.00;99.90;;;;;;5034065;28;20179;-74
2021/01/30 01:03:50;;;;;;;10.20;7.60;;;7.00;99.90;;;;;;5033945;28;20185;-76
2021/01/30 01:06:16;;;;;;;12.90;7.40;;;7.00;99.90;;;;;;5033465;28;20174;-74
2021/01/30 01:08:41;;;;;;;12.63;7.70;;;7.00;99.90;;;;;;5032305;28;20234;-75
2021/01/30 01:11:08;;;;;;;21.00;8.43;;;7.00;99.90;;;;;;5033675;28;20198;-75
2021/01/30 01:13:33;;;;;;;11.80;7.95;;;7.00;99.90;;;;;;5032581;28;20185;-75
2021/01/30 01:15:59;;;;;;;19.63;8.93;;;7.00;99.90;;;;;;5032353;28;20178;-75
2021/01/30 01:18:25;;;;;;;7.93;5.60;;;6.90;99.90;;;;;;5033074;28;20268;-75
2021/01/30 01:20:51;;;;;;;8.80;5.83;;;6.80;99.90;;;;;;5033576;28;20557;-76
2021/01/30 01:23:17;;;;;;;7.15;5.30;;;6.80;99.90;;;;;;5033327;28;20401;-75
2021/01/30 01:25:42;;;;;;;6.90;5.80;;;6.80;99.90;;;;;;5033552;28;20192;-76
2021/01/30 01:28:08;;;;;;;11.00;4.57;;;6.80;99.90;;;;;;5031845;28;20663;-74
2021/01/30 01:30:34;;;;;;;6.00;4.10;;;6.70;99.90;;;;;;5032195;28;20185;-74
2021/01/30 01:32:59;;;;;;;8.57;4.70;;;6.70;99.90;;;;;;5033403;28;20419;-74
2021/01/30 01:35:28;;;;;;;10.60;4.07;;;6.70;99.90;;;;;;5033158;28;20182;-74
2021/01/30 01:37:54;;;;;;;7.82;4.60;;;6.70;99.90;;;;;;5033051;28;20485;-75
2021/01/30 01:40:25;;;;;;;9.57;5.87;;;6.60;99.90;;;;;;5033588;28;20198;-76
2021/01/30 01:43:04;;;;;;;11.05;4.85;;;6.60;99.90;;;;;;5033366;28;20635;-77
2021/01/30 01:45:30;;;;;;;6.40;2.63;;;6.60;99.90;;;;;;5033162;28;20154;-77
2021/01/30 01:47:57;;;;;;;8.53;5.60;;;6.50;99.90;;;;;;5032806;28;20251;-76
2021/01/30 01:50:26;;;;;;;6.75;4.80;;;6.50;99.90;;;;;;5031922;28;20932;-74
2021/01/30 01:52:57;;;;;;;9.07;4.70;;;6.50;99.90;;;;;;5033201;28;20174;-77
2021/01/30 01:55:22;;;;;;;12.65;5.82;;;6.50;99.90;;;;;;5033120;28;20289;-75
2021/01/30 01:57:54;;;;;;;9.33;6.00;;;6.50;99.90;;;;;;5032630;28;20289;-76
2021/01/30 02:00:24;;;;;;;10.43;6.10;;;6.50;99.90;;;;;;5032076;28;20668;-75
2021/01/30 02:02:53;;;;;;;8.65;5.10;;;6.50;99.90;;;;;;5033297;28;20619;-74
2021/01/30 02:05:27;;;;;;;13.65;7.60;;;6.40;99.90;;;;;;5033167;28;20166;-74
2021/01/30 02:07:56;;;;;;;11.27;6.28;;;6.40;99.90;;;;;;5031419;28;20200;-75
2021/01/30 02:10:24;;;;;;;12.05;7.68;;;6.40;99.90;;;;;;5032973;28;20192;-76
2021/01/30 02:12:54;;;;;;;9.07;6.35;;;6.40;99.90;;;;;;5033007;28;20182;-76
2021/01/30 02:15:21;;;;;;;10.02;6.32;;;6.30;99.90;;;;;;5033013;28;20321;-76
2021/01/30 02:18:01;;;;;;;12.88;7.38;;;6.30;99.90;;;;;;5032447;28;20221;-76
2021/01/30 02:20:45;;;;;;;12.35;7.40;;;6.30;99.90;;;;;;5036989;28;20174;-75
2021/01/30 02:23:48;;;;;;;11.60;6.97;;;6.30;99.90;;;;;;5036976;28;20197;-75
2021/01/30 02:26:55;;;;;;;10.93;7.50;;;6.30;99.90;;;;;;5036911;28;20171;-75
2021/01/30 02:29:32;;;;;;;10.50;8.30;;;6.30;99.90;;;;;;5016905;28;20182;-76
2021/01/30 02:32:17;;;;;;;8.70;6.65;;;6.30;99.90;;;;;;5036721;28;20247;-75
2021/01/30 02:35:03;;;;;;;11.60;8.75;;;6.20;99.90;;;;;;5036748;28;20181;-75
2021/01/30 02:37:35;;;;;;;17.33;10.77;;;6.30;99.90;;;;;;5036116;28;20237;-74
2021/01/30 02:40:21;;;;;;;13.75;10.30;;;6.20;99.90;;;;;;5036688;28;20543;-76
2021/01/30 02:43:05;;;;;;;15.63;10.55;;;6.00;99.90;;;;;;5036664;28;20206;-76
2021/01/30 02:45:35;;;;;;;17.38;10.50;;;5.80;99.90;;;;;;5035219;28;20170;-76
2021/01/30 02:48:31;;;;;;;14.80;10.43;;;5.70;99.90;;;;;;5035942;28;20736;-76
2021/01/30 02:51:01;;;;;;;24.40;16.08;;;5.70;99.90;;;;;;5035463;28;20201;-74
2021/01/30 02:53:35;;;;;;;26.55;17.77;;;5.60;99.90;;;;;;5036795;28;20181;-75
2021/01/30 02:56:03;;;;;;;30.48;18.38;;;5.40;99.90;;;;;;5036450;28;20276;-75
2021/01/30 02:58:43;;;;;;;27.00;19.20;;;5.20;99.90;;;;;;5035889;28;20212;-76
2021/01/30 03:01:10;;;;;;;29.70;19.90;;;5.20;99.90;;;;;;5036275;28;20178;-75
2021/01/30 03:03:36;;;;;;;29.35;19.52;;;5.10;99.90;;;;;;5036223;28;20201;-76
2021/01/30 03:06:22;;;;;;;32.60;20.25;;;5.00;99.90;;;;;;5036143;28;20205;-75
2021/01/30 03:09:04;;;;;;;31.85;19.52;;;4.90;99.90;;;;;;5035721;28;20197;-76
2021/01/30 03:11:42;;;;;;;36.75;20.25;;;4.60;99.90;;;;;;5036012;28;20268;-75
2021/01/30 03:14:20;;;;;;;36.42;18.98;;;4.70;99.90;;;;;;5036053;28;20565;-74
2021/01/30 03:16:46;;;;;;;33.08;19.30;;;4.60;99.90;;;;;;5035813;28;20224;-75
2021/01/30 03:19:18;;;;;;;28.95;18.67;;;4.50;99.90;;;;;;5035862;28;20289;-75
2021/01/30 03:21:46;;;;;;;33.00;18.40;;;4.40;99.90;;;;;;5035844;28;20170;-76
2021/01/30 03:24:12;;;;;;;37.10;18.95;;;4.10;99.90;;;;;;5035644;28;20176;-75
2021/01/30 03:26:43;;;;;;;39.05;18.77;;;4.10;99.90;;;;;;5034177;28;20212;-75
2021/01/30 03:29:12;;;;;;;27.50;16.48;;;4.00;99.90;;;;;;5035445;28;20201;-74
2021/01/30 03:31:38;;;;;;;28.15;15.77;;;4.10;99.90;;;;;;5034391;28;20640;-76
2021/01/30 03:34:05;;;;;;;27.65;16.73;;;4.00;99.90;;;;;;5035447;28;20187;-74
2021/01/30 03:36:31;;;;;;;31.42;17.65;;;4.10;99.90;;;;;;5035420;28;20247;-74
2021/01/30 03:38:56;;;;;;;31.47;18.60;;;4.10;99.90;;;;;;5033902;28;20213;-74
2021/01/30 03:41:22;;;;;;;29.97;15.40;;;4.10;99.90;;;;;;5035813;28;20178;-75
2021/01/30 03:43:47;;;;;;;26.13;15.00;;;4.00;99.90;;;;;;5035672;28;20168;-76
2021/01/30 03:46:13;;;;;;;24.30;15.23;;;3.80;99.90;;;;;;5035478;28;20532;-75
2021/01/30 03:48:39;;;;;;;27.50;15.73;;;3.70;99.90;;;;;;5033784;28;20206;-74
2021/01/30 03:51:05;;;;;;;26.53;16.13;;;3.50;99.90;;;;;;5035385;28;20412;-76
2021/01/30 03:53:31;;;;;;;23.77;15.90;;;3.40;99.90;;;;;;5034143;28;20184;-74
2021/01/30 03:55:57;;;;;;;23.83;14.60;;;3.40;99.90;;;;;;5035484;28;20185;-77
2021/01/30 03:58:22;;;;;;;24.50;14.30;;;3.40;99.90;;;;;;5034627;28;20674;-75
2021/01/30 04:00:48;;;;;;;26.30;14.30;;;3.40;99.90;;;;;;5035185;28;20210;-74
2021/01/30 04:03:14;;;;;;;21.87;13.47;;;3.40;99.90;;;;;;5035136;28;20189;-76
2021/01/30 04:05:40;;;;;;;23.38;15.07;;;3.20;99.90;;;;;;5035096;28;20177;-74
2021/01/30 04:08:05;;;;;;;24.53;13.80;;;3.30;99.90;;;;;;5033720;28;20577;-74
2021/01/30 04:10:34;;;;;;;20.50;13.43;;;3.20;99.90;;;;;;5034724;28;20201;-77
2021/01/30 04:13:02;;;;;;;22.10;13.95;;;3.30;99.90;;;;;;5033700;28;21008;-76
2021/01/30 04:15:31;;;;;;;19.05;13.70;;;3.20;99.90;;;;;;5034917;28;20188;-76
2021/01/30 04:17:56;;;;;;;23.40;15.13;;;3.20;99.90;;;;;;5034535;28;20546;-75
2021/01/30 04:20:23;;;;;;;19.70;14.00;;;3.20;99.90;;;;;;5034707;28;20183;-76
2021/01/30 04:22:48;;;;;;;20.98;15.43;;;3.10;99.90;;;;;;5034803;28;20206;-75
2021/01/30 04:25:17;;;;;;;24.90;16.77;;;3.10;99.90;;;;;;5034656;28;20177;-74
2021/01/30 04:27:43;;;;;;;24.67;15.70;;;3.10;99.90;;;;;;5034192;28;20197;-75
2021/01/30 04:30:11;;;;;;;25.23;16.90;;;3.00;99.90;;;;;;5034600;28;20667;-75
2021/01/30 04:32:36;;;;;;;26.52;17.08;;;2.90;99.90;;;;;;5034273;28;20412;-76
2021/01/30 04:35:02;;;;;;;25.80;16.17;;;2.90;99.90;;;;;;5034576;28;20177;-74
2021/01/30 04:37:28;;;;;;;25.00;16.10;;;2.90;99.90;;;;;;5033910;28;20208;-76
2021/01/30 04:39:54;;;;;;;23.93;16.60;;;2.80;99.90;;;;;;5033056;28;20457;-75
2021/01/30 04:42:31;;;;;;;23.00;14.30;;;2.90;99.90;;;;;;5033810;28;20180;-76
2021/01/30 04:45:27;;;;;;;20.73;14.38;;;2.60;99.90;;;;;;5034333;28;20535;-75
2021/01/30 04:48:12;;;;;;;21.77;16.23;;;2.60;99.90;;;;;;5033912;28;20265;-76
2021/01/30 04:50:47;;;;;;;29.80;18.77;;;2.70;99.90;;;;;;5034119;28;20181;-76
2021/01/30 04:53:31;;;;;;;28.55;18.65;;;2.70;99.90;;;;;;5034278;28;20177;-76
2021/01/30 04:56:20;;;;;;;31.05;19.17;;;2.70;99.90;;;;;;5033005;28;20188;-75
2021/01/30 04:58:51;;;;;;;32.28;21.30;;;2.50;99.90;;;;;;5025504;28;20314;-76
2021/01/30 05:01:20;;;;;;;33.33;20.20;;;2.60;99.90;;;;;;5034381;28;20168;-76
2021/01/30 05:03:56;;;;;;;31.77;21.17;;;2.50;99.90;;;;;;5034058;28;20178;-75
2021/01/30 05:06:41;;;;;;;36.63;24.15;;;2.40;99.90;;;;;;5034121;28;20180;-75
2021/01/30 05:09:27;;;;;;;34.80;21.40;;;2.30;99.90;;;;;;5033727;28;20562;-76
2021/01/30 05:12:15;;;;;;;36.22;21.58;;;2.30;99.90;;;;;;5033860;28;20183;-76
2021/01/30 05:14:45;;;;;;;38.40;23.48;;;2.40;99.90;;;;;;5033668;28;20174;-75
2021/01/30 05:17:19;;;;;;;35.03;22.90;;;2.30;99.90;;;;;;5033276;28;20303;-77
2021/01/30 05:19:53;;;;;;;31.98;21.67;;;2.50;99.90;;;;;;5033668;28;20171;-75
2021/01/30 05:22:21;;;;;;;36.08;22.27;;;2.50;99.90;;;;;;5033662;28;20259;-75
2021/01/30 05:24:47;;;;;;;35.85;22.30;;;2.30;99.90;;;;;;5033465;28;20185;-75
2021/01/30 05:27:54;;;;;;;33.47;23.37;;;2.30;99.90;;;;;;5033204;28;20198;-76
2021/01/30 05:30:52;;;;;;;32.95;21.85;;;2.20;99.90;;;;;;4991950;28;20682;-75
2021/01/30 05:33:40;;;;;;;35.40;22.52;;;2.20;99.90;;;;;;4960158;28;20233;-74
2021/01/30 05:36:27;;;;;;;37.10;22.38;;;2.30;99.90;;;;;;5026271;28;20254;-75
2021/01/30 05:39:17;;;;;;;34.95;22.83;;;2.10;99.90;;;;;;5032962;28;20286;-76
2021/01/30 05:42:04;;;;;;;41.50;22.08;;;2.00;99.90;;;;;;5033522;28;20195;-75
2021/01/30 05:44:59;;;;;;;36.55;22.90;;;1.90;99.90;;;;;;5033513;28;20590;-76
2021/01/30 05:47:29;;;;;;;35.10;20.98;;;1.90;99.90;;;;;;5032985;28;20697;-75
2021/01/30 05:50:03;;;;;;;37.95;22.10;;;1.70;99.90;;;;;;5033287;28;20185;-75
2021/01/30 05:52:32;;;;;;;29.08;19.25;;;1.90;99.90;;;;;;5033421;28;20174;-75
2021/01/30 05:54:58;;;;;;;32.22;20.65;;;1.90;99.90;;;;;;5033238;28;20214;-75
2021/01/30 05:57:25;;;;;;;31.13;21.02;;;1.90;99.90;;;;;;5032780;28;20690;-74
2021/01/30 05:59:55;;;;;;;30.83;21.23;;;1.90;99.90;;;;;;5033236;28;20171;-75
2021/01/30 06:02:29;;;;;;;31.85;20.92;;;1.60;99.90;;;;;;5033217;28;20167;-74
2021/01/30 06:04:55;;;;;;;34.88;23.38;;;1.60;99.90;;;;;;5033186;28;20203;-75
2021/01/30 06:07:34;;;;;;;32.97;22.17;;;1.70;99.90;;;;;;5032535;28;20659;-75
2021/01/30 06:10:29;;;;;;;33.78;22.65;;;1.80;99.90;;;;;;5033175;28;20308;-75
2021/01/30 06:13:25;;;;;;;33.67;22.10;;;1.80;99.90;;;;;;5031947;28;20618;-75
2021/01/30 06:15:55;;;;;;;36.00;24.67;;;1.80;99.90;;;;;;5020684;28;20193;-75
2021/01/30 06:18:39;;;;;;;38.58;24.95;;;1.80;99.90;;;;;;5032554;28;20199;-75
2021/01/30 06:21:14;;;;;;;37.92;24.77;;;1.80;99.90;;;;;;5033171;28;20513;-76
2021/01/30 06:23:59;;;;;;;38.08;24.92;;;1.60;99.90;;;;;;5032930;28;20573;-74
2021/01/30 06:26:25;;;;;;;38.13;24.27;;;1.60;99.90;;;;;;5033036;28;20246;-74
2021/01/30 06:29:03;;;;;;;44.80;26.27;;;1.60;99.90;;;;;;5032641;28;20218;-75
2021/01/30 06:31:39;;;;;;;41.28;26.98;;;1.60;99.90;;;;;;5032741;28;20422;-74
2021/01/30 06:34:31;;;;;;;35.67;23.73;;;1.50;99.90;;;;;;5031623;28;20664;-74
2021/01/30 06:36:58;;;;;;;40.90;26.38;;;1.50;99.90;;;;;;5032519;28;20555;-75
2021/01/30 06:39:32;;;;;;;41.17;25.13;;;1.50;99.90;;;;;;5032515;28;20207;-75
2021/01/30 06:42:06;;;;;;;44.28;26.60;;;1.40;99.90;;;;;;5032760;28;20183;-75
2021/01/30 06:44:31;;;;;;;47.47;25.48;;;1.40;99.90;;;;;;5032939;28;20218;-74
2021/01/30 06:47:03;;;;;;;39.17;24.63;;;1.40;99.90;;;;;;5032551;28;20221;-75
2021/01/30 06:49:35;;;;;;;38.78;24.48;;;1.40;99.90;;;;;;5032661;28;20410;-75
2021/01/30 06:52:15;;;;;;;42.00;25.60;;;1.50;99.90;;;;;;5032487;28;20178;-74
2021/01/30 06:54:40;;;;;;;40.50;24.98;;;1.50;99.90;;;;;;5032752;28;20652;-75
2021/01/30 06:57:29;;;;;;;39.50;23.20;;;1.50;99.90;;;;;;5032142;28;20257;-73
2021/01/30 06:59:58;;;;;;;35.15;23.48;;;1.50;99.90;;;;;;5032365;28;20457;-75
2021/01/30 07:02:35;;;;;;;38.38;24.35;;;1.70;99.90;;;;;;5031399;28;20646;-75
2021/01/30 07:05:11;;;;;;;42.67;25.15;;;1.70;99.90;;;;;;5034280;28;20175;-74
2021/01/30 07:07:48;;;;;;;48.00;25.40;;;1.60;99.90;;;;;;5035846;28;20203;-74
2021/01/30 07:10:39;;;;;;;37.65;23.55;;;1.60;99.90;;;;;;5036159;28;20187;-75
2021/01/30 07:13:26;;;;;;;33.80;22.38;;;1.20;99.90;;;;;;5036152;28;20202;-75
2021/01/30 07:16:26;;;;;;;37.70;22.63;;;1.20;99.90;;;;;;5035880;28;20241;-75
2021/01/30 07:19:16;;;;;;;41.28;23.20;;;1.30;99.90;;;;;;5035734;28;20207;-74
2021/01/30 07:21:47;;;;;;;38.78;23.95;;;1.40;99.90;;;;;;5035794;28;20173;-75
2021/01/30 07:24:17;;;;;;;39.97;24.42;;;1.40;99.90;;;;;;5035685;28;20184;-76
2021/01/30 07:27:00;;;;;;;36.00;22.65;;;1.40;99.90;;;;;;5035585;28;20175;-75
2021/01/30 07:29:50;;;;;;;38.47;22.13;;;1.60;99.90;;;;;;5035770;28;20186;-75
2021/01/30 07:32:31;;;;;;;38.88;22.85;;;1.50;99.90;;;;;;5034478;28;20191;-74
2021/01/30 07:35:18;;;;;;;33.55;21.92;;;1.30;99.90;;;;;;5035722;28;20173;-75
2021/01/30 07:37:51;;;;;;;32.45;19.80;;;1.30;99.90;;;;;;5035185;28;20199;-75
2021/01/30 07:40:24;;;;;;;29.15;19.73;;;1.40;99.90;;;;;;5035447;28;20571;-75
2021/01/30 07:43:07;;;;;;;33.22;20.70;;;1.30;99.90;;;;;;5035630;28;20171;-75
2021/01/30 07:45:36;;;;;;;32.47;19.85;;;1.40;99.90;;;;;;5035514;28;20254;-75
2021/01/30 07:48:20;;;;;;;33.60;21.27;;;1.40;99.90;;;;;;5033637;28;20738;-76
2021/01/30 07:50:56;;;;;;;34.30;20.23;;;1.40;99.90;;;;;;5035496;28;20595;-74
2021/01/30 07:53:24;;;;;;;31.38;18.75;;;1.40;99.90;;;;;;5035467;28;20184;-75
2021/01/30 07:56:14;;;;;;;30.58;21.02;;;1.50;99.90;;;;;;5035626;28;20278;-76
2021/01/30 07:58:58;;;;;;;33.47;21.63;;;1.50;99.90;;;;;;5034646;28;20206;-76
2021/01/30 08:01:38;;;;;;;36.20;23.08;;;1.50;99.90;;;;;;5034926;28;20566;-75
2021/01/30 08:04:36;;;;;;;34.92;21.30;;;1.50;99.90;;;;;;5034949;28;20257;-76
2021/01/30 08:07:16;;;;;;;36.83;21.33;;;1.60;99.90;;;;;;5034760;28;20241;-75
2021/01/30 08:10:18;;;;;;;36.67;21.17;;;1.70;99.90;;;;;;5034815;28;20182;-75
2021/01/30 08:13:14;;;;;;;34.40;22.05;;;1.80;99.90;;;;;;5019123;28;20328;-75
2021/01/30 08:15:47;;;;;;;43.22;24.85;;;1.60;99.90;;;;;;5034133;28;20538;-76
2021/01/30 08:18:44;;;;;;;35.53;22.50;;;1.60;99.90;;;;;;5034394;28;20653;-75
2021/01/30 08:21:30;;;;;;;38.15;22.85;;;1.70;99.90;;;;;;5030146;28;20195;-76
2021/01/30 08:24:02;;;;;;;39.60;24.40;;;1.80;99.90;;;;;;5033615;28;20183;-76
2021/01/30 08:26:29;;;;;;;44.22;25.48;;;1.80;99.90;;;;;;5034570;28;20579;-75
2021/01/30 08:29:10;;;;;;;40.58;25.15;;;1.70;99.90;;;;;;5034425;28;20216;-76
2021/01/30 08:31:45;;;;;;;40.95;26.10;;;1.80;99.90;;;;;;5034653;28;20176;-76
2021/01/30 08:34:17;;;;;;;40.58;24.98;;;1.70;99.90;;;;;;5033232;28;20254;-76
2021/01/30 08:36:46;;;;;;;40.88;24.80;;;1.70;99.90;;;;;;5033894;28;20180;-76
2021/01/30 08:39:25;;;;;;;37.55;23.90;;;1.80;99.90;;;;;;5034161;28;20222;-75
2021/01/30 08:41:58;;;;;;;37.13;21.98;;;1.90;99.90;;;;;;5034499;28;20174;-76
2021/01/30 08:44:43;;;;;;;40.60;24.42;;;1.90;99.90;;;;;;5032954;28;20179;-75
2021/01/30 08:47:25;;;;;;;39.67;25.10;;;1.90;99.90;;;;;;5032677;28;20634;-76
2021/01/30 08:50:33;;;;;;;34.92;23.02;;;1.90;99.90;;;;;;5034353;28;20177;-74
2021/01/30 08:53:21;;;;;;;37.55;23.02;;;2.10;99.90;;;;;;5034085;28;20189;-76
2021/01/30 08:55:56;;;;;;;41.30;23.85;;;2.00;99.90;;;;;;5034298;28;20198;-75
2021/01/30 08:58:37;;;;;;;38.00;24.27;;;2.00;99.90;;;;;;5033673;28;20244;-75
2021/01/30 09:01:09;;;;;;;36.92;22.50;;;2.00;99.90;;;;;;5034047;28;20170;-75
2021/01/30 09:03:48;;;;;;;36.03;22.23;;;2.10;99.90;;;;;;5032724;28;20176;-79
2021/01/30 09:06:38;;;;;;;32.30;19.33;;;2.10;99.90;;;;;;5034284;28;20548;-76
2021/01/30 09:09:15;;;;;;;35.92;21.58;;;2.30;99.90;;;;;;5034112;28;20249;-76
2021/01/30 09:11:46;;;;;;;36.30;21.88;;;2.20;99.90;;;;;;5034081;28;20530;-77
2021/01/30 09:14:15;;;;;;;35.88;20.77;;;2.30;99.90;;;;;;5033848;28;20561;-77
2021/01/30 09:16:52;;;;;;;40.08;23.10;;;2.30;99.90;;;;;;5032191;28;20178;-76
2021/01/30 09:19:33;;;;;;;34.33;22.25;;;2.30;99.90;;;;;;5033844;28;20206;-77
2021/01/30 09:22:09;;;;;;;37.22;21.45;;;2.30;99.90;;;;;;5033726;28;20661;-77
2021/01/30 09:25:03;;;;;;;32.33;21.65;;;2.30;99.90;;;;;;5032384;28;20214;-77
2021/01/30 09:27:32;;;;;;;37.78;22.50;;;2.30;99.90;;;;;;5032948;28;20210;-76
2021/01/30 09:30:19;;;;;;;39.10;22.92;;;2.30;99.90;;;;;;5033639;28;20282;-77
2021/01/30 09:32:46;;;;;;;34.55;21.83;;;2.40;99.90;;;;;;5033564;28;20180;-77
2021/01/30 09:35:25;;;;;;;37.53;22.92;;;2.30;99.90;;;;;;5033492;28;20167;-76
2021/01/30 09:37:50;;;;;;;35.10;21.88;;;2.20;99.90;;;;;;5033137;28;20206;-76
2021/01/30 09:40:30;;;;;;;32.67;20.90;;;2.20;99.90;;;;;;5033444;28;20203;-77
2021/01/30 09:43:05;;;;;;;33.40;22.00;;;2.20;99.90;;;;;;5033289;28;20207;-77
2021/01/30 09:45:32;;;;;;;34.53;21.73;;;2.10;99.90;;;;;;5032013;28;20658;-76
2021/01/30 09:48:01;;;;;;;34.55;22.02;;;2.10;99.90;;;;;;5032952;28;20204;-76
2021/01/30 09:50:32;;;;;;;36.08;21.70;;;2.10;99.90;;;;;;5033408;28;20184;-76
2021/01/30 09:53:05;;;;;;;30.17;20.55;;;2.10;99.90;;;;;;5036124;28;20494;-76
2021/01/30 09:55:30;;;;;;;33.72;21.52;;;2.20;99.90;;;;;;5033418;28;20319;-77
2021/01/30 09:58:11;;;;;;;31.43;19.70;;;2.00;99.90;;;;;;5032859;28;20291;-76
2021/01/30 10:00:39;;;;;;;31.48;19.88;;;2.20;99.90;;;;;;5031951;28;20991;-77
2021/01/30 10:03:24;;;;;;;30.48;19.70;;;2.00;99.90;;;;;;5033048;28;20186;-77
2021/01/30 10:05:55;;;;;;;33.60;20.42;;;2.10;99.90;;;;;;5031960;28;20635;-77
2021/01/30 10:08:32;;;;;;;30.70;20.88;;;2.10;99.90;;;;;;5032800;28;20196;-77
2021/01/30 10:11:07;;;;;;;32.03;19.88;;;2.30;99.90;;;;;;5033040;28;20673;-76
2021/01/30 10:13:35;;;;;;;35.25;21.85;;;2.20;99.90;;;;;;5032911;28;20198;-76
2021/01/30 10:16:03;;;;;;;31.77;20.88;;;2.20;99.90;;;;;;5032971;28;20200;-77
2021/01/30 10:18:32;;;;;;;32.65;19.80;;;2.00;99.90;;;;;;5032448;28;20206;-77
2021/01/30 10:21:01;;;;;;;30.58;20.75;;;2.00;99.90;;;;;;5033179;28;20260;-75
2021/01/30 10:23:39;;;;;;;29.35;19.73;;;2.10;99.90;;;;;;5031685;28;20184;-76
2021/01/30 10:26:07;;;;;;;30.23;19.40;;;2.10;99.90;;;;;;5032848;28;20577;-75
2021/01/30 10:28:46;;;;;;;29.50;19.60;;;2.10;99.90;;;;;;5032446;28;20225;-77
2021/01/30 10:31:12;;;;;;;30.90;18.17;;;2.20;99.90;;;;;;5031587;28;20233;-76
2021/01/30 10:33:44;;;;;;;27.98;17.95;;;2.30;99.90;;;;;;5032694;28;20176;-77
2021/01/30 10:36:10;;;;;;;30.98;20.08;;;2.20;99.90;;;;;;5032896;28;20172;-75
2021/01/30 10:38:36;;;;;;;29.97;19.43;;;2.20;99.90;;;;;;5032289;28;20289;-75
2021/01/30 10:41:04;;;;;;;28.90;19.50;;;2.20;99.90;;;;;;5034833;28;20409;-76
2021/01/30 10:43:35;;;;;;;34.70;20.73;;;2.20;99.90;;;;;;5036442;28;20177;-76
2021/01/30 10:46:07;;;;;;;27.27;16.95;;;2.20;99.90;;;;;;5036588;28;20576;-76
2021/01/30 10:48:37;;;;;;;28.23;17.35;;;2.20;99.90;;;;;;5036098;28;20204;-76
2021/01/30 10:51:06;;;;;;;30.00;20.33;;;2.30;99.90;;;;;;5035295;28;20612;-76
2021/01/30 10:53:40;;;;;;;27.83;18.27;;;2.30;99.90;;;;;;5036491;28;20179;-76
2021/01/30 10:56:26;;;;;;;27.10;17.13;;;2.30;99.90;;;;;;5036642;28;20575;-76
2021/01/30 10:58:53;;;;;;;24.23;17.77;;;2.50;99.90;;;;;;5036151;28;20266;-77
2021/01/30 11:01:19;;;;;;;29.90;19.83;;;2.40;99.90;;;;;;5036639;28;20230;-76
2021/01/30 11:03:56;;;;;;;26.63;17.10;;;2.40;99.90;;;;;;5036148;28;20180;-76
2021/01/30 11:06:47;;;;;;;24.92;17.25;;;2.30;99.90;;;;;;5036099;28;20180;-75
2021/01/30 11:09:23;;;;;;;27.73;17.52;;;2.40;99.90;;;;;;5036210;28;20626;-75
2021/01/30 11:11:51;;;;;;;24.60;16.45;;;2.30;99.90;;;;;;5036232;28;20512;-76
2021/01/30 11:14:27;;;;;;;24.35;17.00;;;2.40;99.90;;;;;;5036178;28;20181;-76
2021/01/30 11:16:58;;;;;;;24.30;17.63;;;2.40;99.90;;;;;;5035689;28;20183;-76
2021/01/30 11:19:40;;;;;;;24.95;17.02;;;2.50;99.90;;;;;;5036120;28;20215;-76
2021/01/30 11:22:21;;;;;;;24.23;17.88;;;2.40;99.90;;;;;;5035852;28;20223;-77
2021/01/30 11:24:52;;;;;;;26.90;18.98;;;2.40;99.90;;;;;;5035935;28;20274;-75
2021/01/30 11:27:40;;;;;;;24.70;17.17;;;2.50;99.90;;;;;;5035388;28;20206;-75
2021/01/30 11:30:15;;;;;;;29.02;17.23;;;2.50;99.90;;;;;;5035742;28;20246;-76
2021/01/30 11:32:52;;;;;;;26.35;16.75;;;2.50;99.90;;;;;;5035782;28;20179;-77
2021/01/30 11:35:29;;;;;;;26.10;18.50;;;2.40;99.90;;;;;;5035692;28;20188;-75
2021/01/30 11:37:58;;;;;;;25.77;18.13;;;2.50;99.90;;;;;;5035168;28;20803;-75
2021/01/30 11:40:24;;;;;;;28.63;18.92;;;2.60;99.90;;;;;;5035628;28;20183;-76
2021/01/30 11:42:49;;;;;;;23.17;16.48;;;2.60;99.90;;;;;;5035626;28;20177;-75
2021/01/30 11:45:15;;;;;;;25.57;18.13;;;2.60;99.90;;;;;;5035478;28;20191;-75
2021/01/30 11:47:41;;;;;;;26.33;17.63;;;2.60;99.90;;;;;;5035070;28;20233;-76
2021/01/30 11:50:09;;;;;;;26.73;17.73;;;2.70;99.90;;;;;;5035100;28;20208;-76
2021/01/30 11:52:35;;;;;;;23.25;15.02;;;2.70;99.90;;;;;;5035202;28;20637;-76
2021/01/30 11:55:03;;;;;;;28.20;18.07;;;2.50;99.90;;;;;;5034023;28;20183;-75
2021/01/30 11:57:29;;;;;;;21.85;15.90;;;2.40;99.90;;;;;;5034886;28;20329;-76
2021/01/30 11:59:55;;;;;;;24.17;15.90;;;2.50;99.90;;;;;;5034683;28;20178;-76
2021/01/30 12:02:30;;;;;;;27.33;17.90;;;2.60;99.90;;;;;;5033405;28;20173;-75
2021/01/30 12:04:56;;;;;;;24.80;16.20;;;2.50;99.90;;;;;;5031970;28;20259;-75
2021/01/30 12:07:22;;;;;;;22.03;15.23;;;2.40;99.90;;;;;;5034432;28;20277;-76
2021/01/30 12:09:47;;;;;;;22.93;15.83;;;2.60;99.90;;;;;;5033332;28;20441;-76
2021/01/30 12:12:13;;;;;;;25.00;16.87;;;2.60;99.90;;;;;;5034267;28;20188;-77
2021/01/30 12:14:39;;;;;;;21.20;15.57;;;2.70;99.90;;;;;;5034772;28;20188;-76
2021/01/30 12:17:04;;;;;;;21.70;16.43;;;2.70;99.90;;;;;;5034494;28;20169;-76
2021/01/30 12:19:30;;;;;;;25.70;17.70;;;2.70;99.90;;;;;;5033570;28;20865;-77
2021/01/30 12:21:56;;;;;;;23.47;15.40;;;2.70;99.90;;;;;;5034950;28;20173;-76
2021/01/30 12:24:22;;;;;;;23.07;16.70;;;2.90;99.90;;;;;;5034945;28;20419;-77
2021/01/30 12:26:47;;;;;;;24.37;18.13;;;3.00;99.90;;;;;;5034647;28;20249;-77
2021/01/30 12:29:13;;;;;;;21.67;16.17;;;3.20;99.90;;;;;;5035373;28;20197;-77
2021/01/30 12:31:38;;;;;;;20.30;16.07;;;3.50;99.90;;;;;;5035143;28;20182;-77
2021/01/30 12:34:04;;;;;;;23.40;16.50;;;3.40;99.90;;;;;;5035770;28;20177;-77
2021/01/30 12:36:29;;;;;;;19.57;14.40;;;3.40;99.90;;;;;;5034453;28;20174;-76
2021/01/30 12:38:55;;;;;;;23.77;16.60;;;3.40;99.90;;;;;;5034255;28;20205;-76
2021/01/30 12:41:21;;;;;;;18.00;14.23;;;3.50;99.90;;;;;;5034550;28;20169;-77
2021/01/30 12:43:46;;;;;;;17.73;14.10;;;3.50;99.90;;;;;;5034564;28;20645;-76
2021/01/30 12:46:12;;;;;;;20.00;14.37;;;3.60;99.90;;;;;;5034293;28;20166;-76
2021/01/30 12:48:39;;;;;;;21.98;14.90;;;3.70;99.90;;;;;;5033814;28;20610;-76
2021/01/30 12:51:05;;;;;;;20.00;13.80;;;3.80;99.90;;;;;;5034408;28;20752;-76
2021/01/30 12:53:30;;;;;;;21.60;15.33;;;3.80;99.90;;;;;;5034199;28;20178;-77
2021/01/30 12:55:57;;;;;;;22.73;14.97;;;3.80;99.90;;;;;;5034231;28;20181;-77
2021/01/30 12:58:28;;;;;;;17.52;13.75;;;3.70;99.90;;;;;;5033679;28;20210;-76
2021/01/30 13:00:54;;;;;;;18.38;12.82;;;3.70;99.90;;;;;;5034236;28;20177;-76
2021/01/30 13:03:20;;;;;;;18.33;13.90;;;3.70;99.90;;;;;;5033637;28;20177;-76
2021/01/30 13:05:46;;;;;;;16.90;12.60;;;3.70;99.90;;;;;;5034021;28;20170;-76
2021/01/30 13:08:13;;;;;;;19.25;13.52;;;3.60;99.90;;;;;;5032365;28;20701;-75